Airfield :







YOU CAN JOIN US ON...

 
LOGIN :

Register | Disclaimer

   EN    FR    IT 

 









Legend :    VFR   Marginal VFR   IFR   Intensive IFR   Very Intensive IFR
Visi :
Ceiling :
>= 8 km
>= 3000ft
5 to 8 km
1000 to 3000 ft
1500m to 5 km
500 to 1000 ft
800 to 1500m
200 to 500 ft
< 800m
< 200 ft
Symbols :   Thunderstorms  Fog  Heavy snow  Heavy precipitations  Wind > 20 kt






- Airport Elevation : 215 ft
- IATA code : MSS


KMSS - Massena International Richards Field

CURRENT METAR :
  • 250453Z AUTO 00000KT 10SM CLR 14/14 A2979 RMK AO2 SLP090 T01440139 402500144

EXPIRED METARs :
  • 250353Z AUTO 23003KT 10SM CLR 17/14 A2979 RMK AO2 SLP089 T01670144
  • 250253Z AUTO 25003KT 10SM CLR 18/14 A2979 RMK AO2 SLP088 T01780144 53006
  • 250153Z AUTO 22004KT 10SM CLR 17/15 A2978 RMK AO2 SLP084 T01720150
  • 250053Z AUTO 23004KT 10SM CLR 18/16 A2977 RMK AO2 SLP082 T01830161
  • 242353Z AUTO 25004KT 10SM CLR 22/16 A2977 RMK AO2 SLP082 60000 T02220156 10250 20183 51007

TAF KMSS
Valid from the 25 at 00:00 until the 26 at 00:00 UTC


242340Z 2500/2524 33004KT P6SM SKC
FM250100 23004KT P6SM SCT170
FM250800 22003KT 4SM BR SCT002
FM251000 22007KT P6SM FEW250
KZBW FIR / North America



MET'MAP, your aeronautical weather chart ! - Copyright ORBIFLY December 2007 - Disclaimer

ORBIFLY MET'MAP TEAM :

Programming & Development : Alexandra Zaïnal
Original concept : Baudouin d'Aumeries
Technical & hardware support : Manuel Goepfert
Assistance : Marc-Olivier Méhu




SOURCES & CREDITS :

   NOAA